Disclaimer

Please do not use the information listed here in-flight or in-navigation, as they are not provided to us by the airports but are provided by volunteers, so they might be outdated.

Search


Regions


Airport information page

No radio frequency information is available.

Airport informations:
Latitude: 34° 12' 36.06" N
Longitude: 062° 13' 41.88" E
Elevation: 3206 feet - 977 meters
Operating hours: Remarks
Operating agency: Military-civil joint use airport
Timezone: UTC+4:30
Fuel: N/A

Runway information:
18/36 - 8218 x 150 feet< - >2505 x 46 meters

Recent METARs:
OAHR 180555Z VRB01KT 8000 FEW040 09/03 Q1024 RMK A3026 BLU
OAHR 180655Z VRB02KT 8000 FEW040 12/05 Q1023 RMK A3023 BLU
OAHR 180655Z VRB02KT 8000 FEW040 12/05 Q1023 RMK A3023 BLU

Airport on the map: